Time;durP1;ratioP1;P1;durP2;ratioP2;P2;SDS_P1;SDS_P2;PMS_P1;PMS_P2;Temp;Humidity;BMP_temperature;BMP_pressure;BME280_temperature;BME280_humidity;BME280_pressure;Samples;Min_cycle;Max_cycle;Signal;HPM_P1;HPM_P2
2022/04/06 00:00:08;;;;;;;;;;;;;;;9.69;59.73;99288.75;4383949;32;33902;-88
2022/04/06 00:02:38;;;;;;;;;;;;;;;9.08;61.65;99301.03;4385966;32;35599;-89
2022/04/06 00:05:06;;;;;;;;;;;;;;;9.33;61.07;99295.00;4385978;32;34328;-90
2022/04/06 00:07:33;;;;;;;;;;;;;;;9.22;61.44;99296.06;4383557;32;32714;-90
2022/04/06 00:10:00;;;;;;;;;;;;;;;9.38;60.91;99293.56;4385753;32;34516;-89
2022/04/06 00:12:28;;;;;;;;;;;;;;;9.41;61.34;99295.09;4385415;32;35340;-89
2022/04/06 00:14:55;;;;;;;;;;;;;;;9.36;61.42;99298.19;4381229;32;35227;-89
2022/04/06 00:17:23;;;;;;;;;;;;;;;9.34;61.54;99301.97;4399520;32;33411;-89
2022/04/06 00:19:50;;;;;;;;;;;;;;;8.87;63.28;99301.25;4396891;32;33938;-88
2022/04/06 00:22:17;;;;;;;;;;;;;;;9.38;61.95;99306.84;4396868;32;34049;-89
2022/04/06 00:24:45;;;;;;;;;;;;;;;9.43;61.50;99309.06;4370733;32;33109;-90
2022/04/06 00:27:12;;;;;;;;;;;;;;;9.16;61.92;99307.25;4395465;32;33954;-90
2022/04/06 00:29:40;;;;;;;;;;;;;;;9.09;62.96;99308.81;4399306;32;34400;-90
2022/04/06 00:32:07;;;;;;;;;;;;;;;9.04;62.76;99315.53;4384990;32;34608;-89
2022/04/06 00:37:21;;;;;;;;;;;;;;;9.15;61.54;99318.84;4389470;32;32885;-89
2022/04/06 00:39:49;;;;;;;;;;;;;;;9.08;61.62;99320.41;4398184;32;33509;-89
2022/04/06 00:42:16;;;;;;;;;;;;;;;9.00;61.61;99314.19;4392912;32;34278;-89
2022/04/06 00:44:43;;;;;;;;;;;;;;;9.32;60.69;99312.75;4400031;32;35156;-88
2022/04/06 00:47:11;;;;;;;;;;;;;;;9.34;60.43;99316.09;4383479;32;31948;-90
2022/04/06 00:49:38;;;;;;;;;;;;;;;9.48;60.51;99322.72;4396654;32;33954;-89
2022/04/06 00:52:06;;;;;;;;;;;;;;;9.28;61.08;99314.03;4394558;32;34582;-89
2022/04/06 00:54:33;;;;;;;;;;;;;;;9.50;60.40;99310.13;4385227;32;35349;-89
2022/04/06 00:57:00;;;;;;;;;;;;;;;9.20;61.16;99313.09;4382872;32;32126;-88
2022/04/06 00:59:28;;;;;;;;;;;;;;;9.13;61.52;99304.06;4399271;32;34399;-89
2022/04/06 01:01:56;;;;;;;;;;;;;;;9.02;62.12;99315.72;4385394;32;34652;-89
2022/04/06 01:04:24;;;;;;;;;;;;;;;9.08;62.05;99317.75;4395918;32;33820;-89
2022/04/06 01:06:52;;;;;;;;;;;;;;;9.15;61.81;99318.00;4385222;32;33229;-89
2022/04/06 01:09:20;;;;;;;;;;;;;;;9.00;61.72;99325.59;4383899;32;34121;-90
2022/04/06 01:11:48;;;;;;;;;;;;;;;9.23;61.00;99320.75;4384511;32;35302;-89
2022/04/06 01:14:17;;;;;;;;;;;;;;;8.66;62.88;99313.03;4395516;32;34450;-90
2022/04/06 01:17:03;;;;;;;;;;;;;;;9.26;61.51;99316.00;4370829;32;31846;-89
2022/04/06 01:19:32;;;;;;;;;;;;;;;9.07;62.45;99320.59;4394931;32;34380;-89
2022/04/06 01:21:59;;;;;;;;;;;;;;;9.07;62.29;99325.88;4384803;32;35047;-88
2022/04/06 01:24:27;;;;;;;;;;;;;;;9.21;61.61;99328.88;4397453;32;36552;-89
2022/04/06 01:26:54;;;;;;;;;;;;;;;9.23;61.47;99326.91;4383525;32;33668;-89
2022/04/06 01:29:22;;;;;;;;;;;;;;;9.25;61.39;99324.13;4397539;32;32968;-90
2022/04/06 01:31:49;;;;;;;;;;;;;;;9.13;62.00;99320.81;4384395;32;34965;-89
2022/04/06 01:34:17;;;;;;;;;;;;;;;9.23;62.03;99329.56;4384941;32;34734;-88
2022/04/06 01:36:44;;;;;;;;;;;;;;;9.28;61.90;99329.13;4385119;32;33465;-88
2022/04/06 01:39:11;;;;;;;;;;;;;;;9.31;61.85;99319.06;4382134;32;33944;-88
2022/04/06 01:41:39;;;;;;;;;;;;;;;9.47;61.50;99318.41;4384623;32;34864;-90
2022/04/06 01:44:06;;;;;;;;;;;;;;;9.57;61.23;99322.69;4394859;32;34328;-90
2022/04/06 01:46:34;;;;;;;;;;;;;;;9.62;60.99;99312.44;4397138;32;33768;-89
2022/04/06 01:54:33;;;;;;;;;;;;;;;9.77;60.21;99316.25;4395881;32;34063;-90
2022/04/06 01:57:00;;;;;;;;;;;;;;;9.70;60.25;99319.62;4384598;32;32368;-90
2022/04/06 01:59:28;;;;;;;;;;;;;;;9.73;59.91;99314.06;4384965;32;32531;-89
2022/04/06 02:01:55;;;;;;;;;;;;;;;9.72;59.71;99317.69;4372054;32;34331;-89
2022/04/06 02:04:23;;;;;;;;;;;;;;;9.50;60.09;99326.06;4385018;32;35115;-89
2022/04/06 02:06:50;;;;;;;;;;;;;;;9.52;60.14;99314.31;4384942;32;33879;-89
2022/04/06 02:09:18;;;;;;;;;;;;;;;9.59;60.00;99309.25;4394920;32;32082;-88
2022/04/06 02:11:45;;;;;;;;;;;;;;;9.74;59.48;99308.56;4384547;32;33839;-88
2022/04/06 02:14:13;;;;;;;;;;;;;;;9.73;59.21;99308.75;4384167;32;34159;-89
2022/04/06 02:16:40;;;;;;;;;;;;;;;9.63;59.46;99305.31;4382061;32;33368;-89
2022/04/06 02:19:08;;;;;;;;;;;;;;;9.64;59.39;99297.19;4397976;32;32900;-90
2022/04/06 02:21:36;;;;;;;;;;;;;;;9.56;59.47;99299.75;4396793;32;33689;-91
2022/04/06 02:24:03;;;;;;;;;;;;;;;9.68;59.03;99298.56;4384550;32;34864;-89
2022/04/06 02:26:30;;;;;;;;;;;;;;;9.63;58.96;99300.81;4382313;32;33625;-88
2022/04/06 02:29:01;;;;;;;;;;;;;;;9.51;59.16;99307.34;4395170;32;34375;-90
2022/04/06 02:31:29;;;;;;;;;;;;;;;9.27;59.86;99301.75;4382653;32;33599;-88
2022/04/06 02:33:56;;;;;;;;;;;;;;;9.24;59.96;99298.53;4384128;32;34317;-89
2022/04/06 02:36:23;;;;;;;;;;;;;;;9.22;60.13;99304.03;4397063;32;33293;-88
2022/04/06 02:38:51;;;;;;;;;;;;;;;9.28;60.04;99302.59;4357183;32;32988;-89
2022/04/06 02:41:18;;;;;;;;;;;;;;;9.04;60.85;99312.88;4383617;32;34513;-88
2022/04/06 02:43:46;;;;;;;;;;;;;;;9.16;60.62;99309.91;4394156;32;36082;-90
2022/04/06 02:46:13;;;;;;;;;;;;;;;9.15;61.01;99313.53;4397391;32;32961;-89
2022/04/06 02:48:41;;;;;;;;;;;;;;;9.32;60.59;99310.09;4384105;32;32813;-89
2022/04/06 02:51:08;;;;;;;;;;;;;;;9.37;60.18;99312.31;4399302;32;34737;-88
2022/04/06 02:53:35;;;;;;;;;;;;;;;9.27;60.29;99306.22;4400011;32;34450;-90
2022/04/06 02:56:03;;;;;;;;;;;;;;;9.25;60.41;99311.69;4384749;32;34767;-88
2022/04/06 02:58:30;;;;;;;;;;;;;;;9.33;60.10;99311.78;4386185;32;32941;-89
2022/04/06 03:00:58;;;;;;;;;;;;;;;9.31;60.15;99311.09;4385813;32;33379;-90
2022/04/06 03:03:26;;;;;;;;;;;;;;;9.30;60.08;99320.03;4382762;32;35218;-90
2022/04/06 03:05:54;;;;;;;;;;;;;;;9.11;60.53;99314.84;4397050;32;34533;-90
2022/04/06 03:08:21;;;;;;;;;;;;;;;9.25;60.10;99319.62;4373072;32;32304;-89
2022/04/06 03:10:48;;;;;;;;;;;;;;;9.25;59.87;99329.44;4386111;32;36566;-91
2022/04/06 03:13:16;;;;;;;;;;;;;;;9.06;60.37;99329.50;4370864;32;34008;-90
2022/04/06 03:15:43;;;;;;;;;;;;;;;9.00;60.41;99330.09;4396805;32;34447;-91
2022/04/06 03:18:11;;;;;;;;;;;;;;;9.19;59.99;99330.00;4395411;32;34602;-88
2022/04/06 03:20:44;;;;;;;;;;;;;;;9.08;60.21;99322.25;4393671;32;36911;-89
2022/04/06 03:23:15;;;;;;;;;;;;;;;9.07;60.20;99328.53;4372254;32;32911;-89
2022/04/06 03:25:43;;;;;;;;;;;;;;;9.20;59.73;99326.38;4392004;32;31449;-92
2022/04/06 03:28:16;;;;;;;;;;;;;;;9.17;59.83;99329.34;4393231;32;34418;-88
2022/04/06 03:30:52;;;;;;;;;;;;;;;9.12;59.91;99320.97;4395143;32;34757;-91
2022/04/06 03:33:20;;;;;;;;;;;;;;;9.12;60.01;99320.97;4377158;32;35364;-89
2022/04/06 03:35:48;;;;;;;;;;;;;;;9.01;60.52;99324.66;4398700;32;33623;-89
2022/04/06 03:38:15;;;;;;;;;;;;;;;9.07;60.34;99316.09;4384743;32;33032;-90
2022/04/06 03:40:47;;;;;;;;;;;;;;;9.13;60.26;99312.88;4398093;32;35715;-88
2022/04/06 03:43:14;;;;;;;;;;;;;;;9.13;60.31;99319.97;4381463;32;34906;-89
2022/04/06 03:45:42;;;;;;;;;;;;;;;9.01;60.53;99315.84;4396137;32;32627;-89
2022/04/06 03:48:09;;;;;;;;;;;;;;;8.58;61.97;99324.38;4383364;32;33710;-90
2022/04/06 03:50:38;;;;;;;;;;;;;;;8.74;61.32;99319.31;4387543;32;35394;-90
2022/04/06 03:53:05;;;;;;;;;;;;;;;8.89;60.71;99325.78;4396039;32;34239;-90
2022/04/06 03:55:32;;;;;;;;;;;;;;;8.86;60.71;99327.91;4397993;32;32354;-90
2022/04/06 03:58:00;;;;;;;;;;;;;;;8.77;61.10;99336.72;4383472;32;33637;-89
2022/04/06 04:00:30;;;;;;;;;;;;;;;8.70;61.45;99333.00;4396588;32;34617;-89
2022/04/06 04:02:57;;;;;;;;;;;;;;;8.83;61.38;99322.87;4389395;32;34418;-91
2022/04/06 04:05:25;;;;;;;;;;;;;;;8.82;61.80;99335.31;4398036;32;33209;-91
2022/04/06 04:07:53;;;;;;;;;;;;;;;8.64;62.88;99329.09;4383403;32;33603;-90
2022/04/06 04:10:20;;;;;;;;;;;;;;;8.78;62.53;99328.63;4395822;32;35293;-90
2022/04/06 04:12:48;;;;;;;;;;;;;;;8.85;62.74;99331.53;4385509;32;33880;-91
2022/04/06 04:15:15;;;;;;;;;;;;;;;9.01;62.26;99334.41;4383196;32;32989;-91
2022/04/06 04:17:43;;;;;;;;;;;;;;;9.05;62.23;99338.44;4396915;32;34132;-90
2022/04/06 04:20:11;;;;;;;;;;;;;;;9.04;62.30;99329.66;4397644;32;36295;-89
2022/04/06 04:22:38;;;;;;;;;;;;;;;9.13;62.16;99328.78;4385170;32;32808;-90
2022/04/06 04:25:06;;;;;;;;;;;;;;;9.13;62.31;99319.97;4383074;32;32312;-89
2022/04/06 04:27:33;;;;;;;;;;;;;;;9.12;62.24;99332.41;4397714;32;33170;-89
2022/04/06 04:30:01;;;;;;;;;;;;;;;8.93;63.03;99332.50;4370748;32;34468;-88
2022/04/06 04:32:34;;;;;;;;;;;;;;;9.19;62.26;99324.69;4384161;32;35436;-90
2022/04/06 04:35:05;;;;;;;;;;;;;;;9.04;62.77;99334.97;4389653;32;33214;-92
2022/04/06 04:37:32;;;;;;;;;;;;;;;9.07;62.38;99334.66;4392804;32;33482;-88
2022/04/06 04:40:00;;;;;;;;;;;;;;;9.17;62.37;99343.41;4396373;32;34397;-89
2022/04/06 04:42:28;;;;;;;;;;;;;;;9.15;62.49;99344.53;4395377;32;34583;-89
2022/04/06 04:44:55;;;;;;;;;;;;;;;9.09;62.80;99347.78;4397909;32;33099;-91
2022/04/06 04:47:23;;;;;;;;;;;;;;;9.42;62.04;99344.56;4397597;32;33626;-87
2022/04/06 04:49:50;;;;;;;;;;;;;;;9.23;63.09;99344.66;4385332;32;34302;-90
2022/04/06 04:52:17;;;;;;;;;;;;;;;9.06;64.10;99346.25;4388020;32;34770;-88
2022/04/06 04:54:45;;;;;;;;;;;;;;;9.42;63.02;99353.37;4395846;32;34184;-87
2022/04/06 04:57:12;;;;;;;;;;;;;;;9.63;62.42;99345.97;4382781;32;33544;-86
2022/04/06 04:59:39;;;;;;;;;;;;;;;9.73;62.34;99344.09;4382717;32;33811;-87
2022/04/06 05:02:07;;;;;;;;;;;;;;;9.67;62.79;99350.03;4397398;32;34802;-88
2022/04/06 05:04:34;;;;;;;;;;;;;;;9.95;62.08;99351.66;4384980;32;32408;-89
2022/04/06 05:07:02;;;;;;;;;;;;;;;10.01;61.93;99351.03;4398302;32;34872;-88
2022/04/06 05:09:30;;;;;;;;;;;;;;;9.94;62.06;99357.09;4392775;32;36247;-90
2022/04/06 05:11:57;;;;;;;;;;;;;;;10.06;61.95;99354.09;4393556;32;34148;-91
2022/04/06 05:14:27;;;;;;;;;;;;;;;10.13;61.97;99355.19;4391445;32;33462;-89
2022/04/06 05:16:54;;;;;;;;;;;;;;;10.26;61.60;99360.94;4389180;32;34003;-89
2022/04/06 05:19:22;;;;;;;;;;;;;;;10.25;61.69;99350.44;4384864;32;33593;-90
2022/04/06 05:21:49;;;;;;;;;;;;;;;10.42;61.25;99350.44;4393100;32;34081;-93
2022/04/06 05:24:17;;;;;;;;;;;;;;;10.30;61.62;99362.28;4383093;32;33655;-93
2022/04/06 05:26:44;;;;;;;;;;;;;;;10.42;61.46;99366.41;4384359;32;33260;-92
2022/04/06 05:29:12;;;;;;;;;;;;;;;10.47;61.23;99356.13;4390042;32;35975;-91
2022/04/06 05:31:40;;;;;;;;;;;;;;;10.27;62.20;99362.59;4389677;32;34796;-92
2022/04/06 05:34:07;;;;;;;;;;;;;;;10.63;60.98;99358.06;4370138;32;31784;-92
2022/04/06 05:36:34;;;;;;;;;;;;;;;10.75;60.56;99364.81;4397147;32;33344;-91
2022/04/06 05:39:02;;;;;;;;;;;;;;;10.81;60.50;99377.47;4357538;32;34038;-92
2022/04/06 05:41:30;;;;;;;;;;;;;;;10.89;60.29;99377.53;4384882;32;35349;-93
2022/04/06 05:43:57;;;;;;;;;;;;;;;10.63;61.54;99384.66;4395023;32;32879;-92
2022/04/06 05:46:24;;;;;;;;;;;;;;;10.71;61.98;99379.41;4395180;32;33909;-91
2022/04/06 05:48:52;;;;;;;;;;;;;;;11.03;60.98;99387.62;4396984;32;35224;-93
2022/04/06 05:51:19;;;;;;;;;;;;;;;11.23;60.44;99389.91;4384658;32;34435;-92
2022/04/06 05:53:47;;;;;;;;;;;;;;;11.17;60.96;99393.22;4384830;32;32898;-93
2022/04/06 05:56:14;;;;;;;;;;;;;;;11.46;60.09;99396.34;4383449;32;33582;-91
2022/04/06 05:58:43;;;;;;;;;;;;;;;11.02;61.08;99400.09;4383541;32;33955;-92
2022/04/06 06:01:10;;;;;;;;;;;;;;;11.46;59.91;99394.50;4395261;32;34357;-93
2022/04/06 06:03:38;;;;;;;;;;;;;;;11.42;60.19;99395.00;4383881;32;33382;-92
2022/04/06 06:06:05;;;;;;;;;;;;;;;11.49;60.14;99394.22;4394358;32;32718;-92
2022/04/06 06:08:32;;;;;;;;;;;;;;;11.79;59.24;99390.19;4397624;32;35116;-93
2022/04/06 06:11:01;;;;;;;;;;;;;;;11.93;58.77;99393.06;4385759;32;33982;-93
2022/04/06 06:13:29;;;;;;;;;;;;;;;11.86;59.05;99392.06;4398399;32;33292;-93
2022/04/06 06:15:57;;;;;;;;;;;;;;;12.00;58.64;99391.41;4384362;32;34027;-92
2022/04/06 06:18:25;;;;;;;;;;;;;;;12.14;57.85;99390.78;4383714;32;33967;-93
2022/04/06 06:20:52;;;;;;;;;;;;;;;12.17;57.88;99390.47;4384351;32;34792;-91
2022/04/06 06:23:19;;;;;;;;;;;;;;;12.33;57.52;99392.31;4396383;32;33168;-92
2022/04/06 06:25:47;;;;;;;;;;;;;;;12.26;57.77;99396.63;4396985;32;33340;-94
2022/04/06 06:28:15;;;;;;;;;;;;;;;12.35;57.42;99390.31;4396211;32;35285;-91
2022/04/06 06:30:42;;;;;;;;;;;;;;;12.40;57.16;99390.66;4394808;32;34610;-93
2022/04/06 06:33:10;;;;;;;;;;;;;;;12.51;57.07;99385.84;4383987;32;32478;-92
2022/04/06 06:35:37;;;;;;;;;;;;;;;12.77;56.67;99391.00;4397117;32;33034;-92
2022/04/06 06:38:05;;;;;;;;;;;;;;;12.99;55.92;99393.00;4371083;32;34332;-93
2022/04/06 06:40:35;;;;;;;;;;;;;;;13.00;55.38;99387.50;4399020;32;34726;-91
2022/04/06 06:43:02;;;;;;;;;;;;;;;13.09;54.28;99390.97;4398036;32;33450;-92
2022/04/06 06:45:29;;;;;;;;;;;;;;;13.38;53.77;99386.75;4386164;32;34785;-93
2022/04/06 06:47:57;;;;;;;;;;;;;;;13.02;54.71;99390.00;4378583;32;34360;-93
2022/04/06 06:50:25;;;;;;;;;;;;;;;13.42;54.13;99382.72;4382403;32;35182;-92
2022/04/06 06:52:52;;;;;;;;;;;;;;;13.40;53.96;99390.06;4383761;32;32950;-93
2022/04/06 06:55:22;;;;;;;;;;;;;;;13.73;53.35;99382.75;4374913;32;32969;-93
2022/04/06 06:57:49;;;;;;;;;;;;;;;14.10;51.51;99378.41;4383844;32;34032;-92
2022/04/06 07:00:17;;;;;;;;;;;;;;;14.02;52.02;99374.91;4376414;32;34290;-91
2022/04/06 07:02:44;;;;;;;;;;;;;;;14.23;50.70;99375.19;4378430;32;33303;-94
2022/04/06 07:05:12;;;;;;;;;;;;;;;14.35;50.91;99371.06;4378000;32;34224;-91
2022/04/06 07:07:49;;;;;;;;;;;;;;;14.25;51.36;99371.28;4360081;32;33360;-95
2022/04/06 07:10:17;;;;;;;;;;;;;;;14.47;50.80;99378.50;4379140;32;33957;-94
2022/04/06 07:12:45;;;;;;;;;;;;;;;14.82;48.53;99368.00;4371078;32;32417;-94
2022/04/06 07:15:14;;;;;;;;;;;;;;;14.83;48.08;99374.19;4383776;32;35551;-94
2022/04/06 07:17:41;;;;;;;;;;;;;;;14.99;47.53;99382.06;4385766;32;35121;-93
2022/04/06 07:20:09;;;;;;;;;;;;;;;15.11;46.12;99376.09;4385435;32;33936;-96
2022/04/06 07:22:36;;;;;;;;;;;;;;;15.12;46.35;99382.28;4384215;32;33282;-92
2022/04/06 07:25:04;;;;;;;;;;;;;;;15.20;46.08;99374.97;4384687;32;34631;-90
2022/04/06 07:27:37;;;;;;;;;;;;;;;15.37;45.45;99373.81;4384382;32;35937;-91
2022/04/06 07:30:06;;;;;;;;;;;;;;;15.48;44.85;99380.59;4378918;32;33220;-92
2022/04/06 07:32:34;;;;;;;;;;;;;;;15.41;44.39;99371.62;4377151;32;33883;-89
2022/04/06 07:35:03;;;;;;;;;;;;;;;15.37;44.30;99371.16;4361202;32;32670;-90
2022/04/06 07:37:34;;;;;;;;;;;;;;;15.51;44.62;99377.53;4382541;32;35416;-89
2022/04/06 07:40:02;;;;;;;;;;;;;;;15.42;45.60;99384.00;4370845;32;33508;-95
2022/04/06 07:42:29;;;;;;;;;;;;;;;15.59;44.86;99385.47;4381155;32;33892;-92
2022/04/06 07:44:57;;;;;;;;;;;;;;;15.41;44.36;99377.78;4378991;32;33626;-93
2022/04/06 07:47:28;;;;;;;;;;;;;;;15.51;45.97;99380.22;4367749;32;33676;-92
2022/04/06 07:49:57;;;;;;;;;;;;;;;15.73;44.83;99384.63;4386098;32;34704;-92
2022/04/06 07:52:25;;;;;;;;;;;;;;;15.71;44.70;99381.31;4398601;32;33705;-93
2022/04/06 07:54:52;;;;;;;;;;;;;;;15.66;45.50;99383.69;4400014;32;34361;-90
2022/04/06 07:57:21;;;;;;;;;;;;;;;15.67;45.41;99386.19;4385749;32;34126;-91
2022/04/06 07:59:48;;;;;;;;;;;;;;;16.01;45.00;99386.44;4386182;32;34126;-92
2022/04/06 08:02:15;;;;;;;;;;;;;;;15.71;45.60;99381.31;4399987;32;33252;-86
2022/04/06 08:04:43;;;;;;;;;;;;;;;15.69;45.07;99386.84;4386460;32;34992;-91
2022/04/06 08:07:10;;;;;;;;;;;;;;;15.74;45.87;99383.59;4373785;32;36893;-89
2022/04/06 08:09:38;;;;;;;;;;;;;;;16.04;45.23;99383.37;4373363;32;33456;-92
2022/04/06 08:12:05;;;;;;;;;;;;;;;16.37;44.59;99378.41;4400075;32;32816;-91
2022/04/06 08:14:33;;;;;;;;;;;;;;;16.32;46.13;99384.31;4386115;32;33223;-93
2022/04/06 08:17:00;;;;;;;;;;;;;;;16.17;45.28;99382.69;4398084;32;35280;-90
2022/04/06 08:19:28;;;;;;;;;;;;;;;16.34;44.47;99384.94;4385764;32;34321;-89
2022/04/06 08:21:55;;;;;;;;;;;;;;;16.52;44.01;99382.69;4398289;32;33214;-89
2022/04/06 08:24:22;;;;;;;;;;;;;;;16.49;45.73;99382.22;4398315;32;34107;-89
2022/04/06 08:26:50;;;;;;;;;;;;;;;15.98;45.08;99375.25;4399696;32;35298;-90
2022/04/06 08:29:17;;;;;;;;;;;;;;;16.37;46.32;99375.72;4400012;32;34708;-89
2022/04/06 08:31:44;;;;;;;;;;;;;;;16.61;44.90;99373.47;4398292;32;32342;-86
2022/04/06 08:34:12;;;;;;;;;;;;;;;16.28;45.04;99377.66;4398455;32;35043;-91
2022/04/06 08:36:43;;;;;;;;;;;;;;;16.11;45.91;99386.13;4386025;32;35482;-90
2022/04/06 08:39:11;;;;;;;;;;;;;;;16.42;46.11;99386.72;4399563;32;35279;-90
2022/04/06 08:42:05;;;;;;;;;;;;;;;16.97;45.15;99381.44;4399510;32;34106;-91
2022/04/06 08:45:12;;;;;;;;;;;;;;;17.21;44.22;99384.53;4399873;32;34217;-90
2022/04/06 08:47:46;;;;;;;;;;;;;;;17.41;44.00;99371.22;4390313;32;35853;-91
2022/04/06 08:50:13;;;;;;;;;;;;;;;17.74;42.93;99381.97;4368916;32;33489;-92
2022/04/06 08:52:40;;;;;;;;;;;;;;;17.78;42.87;99377.84;4390167;32;33421;-90
2022/04/06 08:55:30;;;;;;;;;;;;;;;17.77;43.70;99378.06;4381758;32;33951;-89
2022/04/06 08:57:59;;;;;;;;;;;;;;;17.87;42.78;99373.97;4377366;32;35944;-88
2022/04/06 09:00:26;;;;;;;;;;;;;;;18.01;41.05;99375.69;4388814;32;35268;-90
2022/04/06 09:02:54;;;;;;;;;;;;;;;18.04;41.02;99372.59;4393751;32;33721;-92
2022/04/06 09:05:29;;;;;;;;;;;;;;;18.25;40.68;99366.25;4393274;32;33476;-88
2022/04/06 09:07:57;;;;;;;;;;;;;;;18.15;42.66;99369.31;4378553;32;35181;-91
2022/04/06 09:10:33;;;;;;;;;;;;;;;18.26;42.92;99357.97;4378771;32;32872;-90
2022/04/06 09:13:07;;;;;;;;;;;;;;;18.20;42.63;99363.31;4381604;32;32676;-88
2022/04/06 09:15:34;;;;;;;;;;;;;;;18.22;42.39;99362.09;4395550;32;33297;-91
2022/04/06 09:18:02;;;;;;;;;;;;;;;18.24;40.89;99357.31;4382136;32;35873;-91
2022/04/06 09:20:31;;;;;;;;;;;;;;;18.30;40.42;99355.69;4392757;32;34851;-91
2022/04/06 09:23:05;;;;;;;;;;;;;;;18.09;42.40;99359.38;4384283;32;34141;-90
2022/04/06 09:25:33;;;;;;;;;;;;;;;18.34;41.67;99357.78;4392502;32;33676;-90
2022/04/06 09:28:16;;;;;;;;;;;;;;;18.62;40.12;99347.66;4388998;32;35183;-91
2022/04/06 09:30:45;;;;;;;;;;;;;;;18.22;40.36;99364.78;4376872;32;34788;-89
2022/04/06 09:33:13;;;;;;;;;;;;;;;18.32;40.96;99351.78;4367492;32;32596;-89
2022/04/06 09:35:41;;;;;;;;;;;;;;;19.01;40.06;99349.56;4365868;32;32732;-89
2022/04/06 09:38:29;;;;;;;;;;;;;;;19.18;39.70;99340.84;4379496;32;35688;-91
2022/04/06 09:41:01;;;;;;;;;;;;;;;19.16;39.00;99336.69;4392300;32;34935;-91
2022/04/06 09:43:29;;;;;;;;;;;;;;;18.92;39.94;99346.25;4394978;32;34018;-90
2022/04/06 09:49:33;;;;;;;;;;;;;;;18.98;40.48;99328.41;4321515;33;35817;-88
2022/04/06 09:52:00;;;;;;;;;;;;;;;19.33;38.83;99314.47;4309997;33;35241;-91
2022/04/06 09:54:28;;;;;;;;;;;;;;;19.67;38.79;99318.72;4309864;33;33183;-91
2022/04/06 09:56:55;;;;;;;;;;;;;;;19.59;37.84;99313.56;4309414;33;34247;-90
2022/04/06 09:59:22;;;;;;;;;;;;;;;19.69;37.51;99309.38;4321524;33;34757;-88
2022/04/06 10:01:52;;;;;;;;;;;;;;;19.59;37.62;99305.47;4309745;33;34648;-89
2022/04/06 10:04:25;;;;;;;;;;;;;;;19.72;36.77;99313.53;4309601;33;32407;-91
2022/04/06 10:06:52;;;;;;;;;;;;;;;19.94;37.38;99307.63;4297555;33;32620;-89
2022/04/06 10:09:20;;;;;;;;;;;;;;;20.18;35.61;99306.87;4297604;33;33774;-91
2022/04/06 10:11:47;;;;;;;;;;;;;;;20.19;35.76;99300.41;4309423;33;33896;-89
2022/04/06 10:14:14;;;;;;;;;;;;;;;20.26;36.51;99308.47;4309557;33;33332;-88
2022/04/06 10:16:42;;;;;;;;;;;;;;;20.20;34.97;99293.16;4321693;33;33868;-90
2022/04/06 10:19:13;;;;;;;;;;;;;;;20.01;34.20;99297.59;4309770;33;35394;-89
2022/04/06 10:22:13;;;;;;;;;;;;;;;19.52;35.04;99297.41;4309668;33;35295;-89
2022/04/06 10:24:47;;;;;;;;;;;;;;;19.92;36.42;99292.66;4335214;32;33817;-86
2022/04/06 10:27:15;;;;;;;;;;;;;;;20.16;33.91;99287.38;4384985;32;33680;-91
2022/04/06 10:30:02;;;;;;;;;;;;;;;20.54;32.88;99277.31;4384337;32;34911;-85
2022/04/06 10:32:34;;;;;;;;;;;;;;;20.14;33.52;99281.34;4395301;32;34746;-86
2022/04/06 10:35:22;;;;;;;;;;;;;;;20.46;34.37;99274.88;4378746;32;32503;-86
2022/04/06 10:37:49;;;;;;;;;;;;;;;20.23;33.83;99276.50;4387680;32;34002;-85
2022/04/06 10:40:17;;;;;;;;;;;;;;;19.92;34.85;99274.56;4388976;32;35237;-86
2022/04/06 10:42:46;;;;;;;;;;;;;;;20.17;35.17;99271.97;4382782;32;32484;-85
2022/04/06 10:45:26;;;;;;;;;;;;;;;20.41;34.92;99271.19;4389199;32;34010;-86
2022/04/06 10:48:09;;;;;;;;;;;;;;;20.61;33.97;99276.22;4382927;32;34101;-87
2022/04/06 10:50:37;;;;;;;;;;;;;;;20.75;33.32;99271.50;4380871;32;34945;-86
2022/04/06 10:53:20;;;;;;;;;;;;;;;20.48;34.08;99266.56;4377432;32;34606;-86
2022/04/06 10:56:12;;;;;;;;;;;;;;;19.85;33.88;99268.41;4397555;32;33111;-86
2022/04/06 10:58:52;;;;;;;;;;;;;;;20.43;34.31;99258.28;4373666;32;33963;-86
2022/04/06 11:01:25;;;;;;;;;;;;;;;20.46;33.74;99247.06;4389393;32;34933;-86
2022/04/06 11:03:58;;;;;;;;;;;;;;;20.76;35.22;99254.25;4373612;32;34676;-86
2022/04/06 11:06:41;;;;;;;;;;;;;;;20.83;33.76;99239.63;4369217;32;32403;-86
2022/04/06 11:12:15;;;;;;;;;;;;;;;21.45;33.15;99236.66;4388580;32;33822;-86
2022/04/06 11:14:44;;;;;;;;;;;;;;;21.13;33.85;99235.19;4377577;32;33896;-86
2022/04/06 11:17:42;;;;;;;;;;;;;;;21.38;34.31;99219.72;4384769;32;31775;-86
2022/04/06 11:20:19;;;;;;;;;;;;;;;21.43;35.03;99227.16;4386167;32;34290;-86
2022/04/06 11:22:53;;;;;;;;;;;;;;;21.68;34.34;99217.88;4377369;32;36867;-85
2022/04/06 11:25:26;;;;;;;;;;;;;;;21.50;34.06;99214.34;4371285;32;34003;-88
2022/04/06 11:27:55;;;;;;;;;;;;;;;21.25;33.92;99210.91;4389585;32;32163;-90
2022/04/06 11:30:23;;;;;;;;;;;;;;;21.46;35.02;99205.84;4386792;32;34875;-89
2022/04/06 11:32:54;;;;;;;;;;;;;;;21.37;34.61;99195.56;4383675;32;34994;-89
2022/04/06 11:35:29;;;;;;;;;;;;;;;21.68;34.32;99189.97;4399603;32;35762;-89
2022/04/06 11:37:56;;;;;;;;;;;;;;;22.05;34.23;99192.34;4389661;32;33266;-90
2022/04/06 11:40:25;;;;;;;;;;;;;;;22.10;31.94;99186.22;4398034;32;33987;-89
2022/04/06 11:42:56;;;;;;;;;;;;;;;22.07;33.29;99182.09;4364780;32;33835;-90
2022/04/06 11:45:25;;;;;;;;;;;;;;;23.20;31.81;99173.41;4378510;32;33765;-86
2022/04/06 11:47:57;;;;;;;;;;;;;;;24.11;30.59;99166.78;4376368;32;31904;-88
2022/04/06 11:50:29;;;;;;;;;;;;;;;23.65;30.03;99165.34;4388584;32;33714;-85
2022/04/06 11:53:17;;;;;;;;;;;;;;;23.74;30.33;99170.16;4385857;32;35645;-87
2022/04/06 11:55:48;;;;;;;;;;;;;;;24.23;30.75;99158.56;4381554;32;34083;-86
2022/04/06 11:58:32;;;;;;;;;;;;;;;24.19;28.71;99149.28;4385049;32;33139;-88
2022/04/06 12:01:04;;;;;;;;;;;;;;;24.52;27.20;99135.66;4387086;32;33724;-86
2022/04/06 12:03:35;;;;;;;;;;;;;;;24.99;26.53;99142.34;4383689;32;34952;-87
2022/04/06 12:06:03;;;;;;;;;;;;;;;25.34;26.79;99126.47;4389582;32;34443;-85
2022/04/06 12:08:33;;;;;;;;;;;;;;;25.12;27.57;99128.38;4392696;32;32525;-85
2022/04/06 12:11:01;;;;;;;;;;;;;;;24.43;28.04;99118.09;4373531;32;34448;-85
2022/04/06 12:13:29;;;;;;;;;;;;;;;25.05;27.92;99114.94;4371972;32;34490;-88
2022/04/06 12:15:58;;;;;;;;;;;;;;;25.74;27.55;99102.37;4377247;32;34552;-87
2022/04/06 12:18:26;;;;;;;;;;;;;;;26.24;26.69;99087.31;4383667;32;33796;-85
2022/04/06 12:20:54;;;;;;;;;;;;;;;25.69;26.30;99094.19;4372390;32;32449;-85
2022/04/06 12:23:26;;;;;;;;;;;;;;;25.36;25.39;99097.09;4391530;32;34636;-87
2022/04/06 12:25:58;;;;;;;;;;;;;;;25.50;24.46;99084.72;4392736;32;34063;-87
2022/04/06 12:28:27;;;;;;;;;;;;;;;26.12;25.15;99081.22;4383707;32;32206;-86
2022/04/06 12:30:58;;;;;;;;;;;;;;;25.36;24.59;99083.47;4379799;32;33574;-89
2022/04/06 12:33:36;;;;;;;;;;;;;;;25.69;24.54;99083.28;4390345;32;34978;-89
2022/04/06 12:36:07;;;;;;;;;;;;;;;25.76;24.33;99073.00;4387546;32;34698;-91
2022/04/06 12:38:36;;;;;;;;;;;;;;;25.72;24.90;99063.69;4368866;32;31890;-92
2022/04/06 12:41:05;;;;;;;;;;;;;;;25.59;24.07;99064.91;4383241;32;34458;-91
2022/04/06 12:43:47;;;;;;;;;;;;;;;25.68;24.11;99057.13;4394257;32;36154;-91
2022/04/06 12:46:34;;;;;;;;;;;;;;;24.74;26.21;99050.31;4393937;32;34726;-90
2022/04/06 12:49:20;;;;;;;;;;;;;;;24.78;26.81;99042.47;4381011;32;33892;-91
2022/04/06 12:52:01;;;;;;;;;;;;;;;24.93;26.63;99038.03;4396273;32;32899;-89
2022/04/06 12:54:28;;;;;;;;;;;;;;;25.33;26.79;99038.53;4379551;32;34932;-91
2022/04/06 12:57:06;;;;;;;;;;;;;;;25.01;26.29;99034.88;4384269;32;34290;-89
2022/04/06 12:59:35;;;;;;;;;;;;;;;25.43;24.59;99043.25;4382882;32;32887;-88
2022/04/06 13:02:04;;;;;;;;;;;;;;;25.04;25.16;99028.09;4395254;32;33583;-88
2022/04/06 13:04:35;;;;;;;;;;;;;;;25.22;25.11;99031.31;4376908;32;35240;-88
2022/04/06 13:07:03;;;;;;;;;;;;;;;24.99;25.57;99023.41;4399027;32;35469;-88
2022/04/06 13:09:31;;;;;;;;;;;;;;;24.68;24.81;99012.41;4388654;32;34992;-87
2022/04/06 13:11:58;;;;;;;;;;;;;;;25.61;25.22;99011.03;4372631;32;34971;-87
2022/04/06 13:14:27;;;;;;;;;;;;;;;25.51;25.49;99007.38;4377851;32;34282;-89
2022/04/06 13:16:56;;;;;;;;;;;;;;;24.78;25.80;99013.38;4397784;32;34209;-88